sensor_id;sensor_type;location;lat;lon;timestamp;P1;durP1;ratioP1;P2;durP2;ratioP2
11747;SDS011;5931;48.832;9.072;2023-06-04T00:00:42;9.37;;;6.37;;
11747;SDS011;5931;48.832;9.072;2023-06-04T00:03:08;9.40;;;5.80;;
11747;SDS011;5931;48.832;9.072;2023-06-04T00:05:33;9.23;;;6.13;;
11747;SDS011;5931;48.832;9.072;2023-06-04T00:07:59;7.80;;;6.00;;
11747;SDS011;5931;48.832;9.072;2023-06-04T00:10:25;14.10;;;6.20;;
11747;SDS011;5931;48.832;9.072;2023-06-04T00:12:50;10.13;;;5.83;;
11747;SDS011;5931;48.832;9.072;2023-06-04T00:15:16;15.57;;;7.07;;
11747;SDS011;5931;48.832;9.072;2023-06-04T00:17:42;12.40;;;6.47;;
11747;SDS011;5931;48.832;9.072;2023-06-04T00:20:08;7.63;;;5.30;;
11747;SDS011;5931;48.832;9.072;2023-06-04T00:22:35;9.60;;;6.77;;
11747;SDS011;5931;48.832;9.072;2023-06-04T00:25:01;7.03;;;5.47;;
11747;SDS011;5931;48.832;9.072;2023-06-04T00:27:26;7.80;;;5.27;;
11747;SDS011;5931;48.832;9.072;2023-06-04T00:29:52;10.30;;;6.37;;
11747;SDS011;5931;48.832;9.072;2023-06-04T00:32:18;10.50;;;5.87;;
11747;SDS011;5931;48.832;9.072;2023-06-04T00:34:50;8.37;;;5.87;;
11747;SDS011;5931;48.832;9.072;2023-06-04T00:37:16;6.40;;;4.90;;
11747;SDS011;5931;48.832;9.072;2023-06-04T00:39:42;9.40;;;5.73;;
11747;SDS011;5931;48.832;9.072;2023-06-04T00:42:07;8.67;;;5.10;;
11747;SDS011;5931;48.832;9.072;2023-06-04T00:44:33;8.90;;;5.00;;
11747;SDS011;5931;48.832;9.072;2023-06-04T00:46:59;8.73;;;5.50;;
11747;SDS011;5931;48.832;9.072;2023-06-04T00:49:25;9.33;;;5.47;;
11747;SDS011;5931;48.832;9.072;2023-06-04T00:51:52;7.60;;;5.03;;
11747;SDS011;5931;48.832;9.072;2023-06-04T00:54:17;11.90;;;6.23;;
11747;SDS011;5931;48.832;9.072;2023-06-04T00:56:45;8.83;;;5.93;;
11747;SDS011;5931;48.832;9.072;2023-06-04T00:59:12;7.93;;;5.50;;
11747;SDS011;5931;48.832;9.072;2023-06-04T01:02:23;9.60;;;6.27;;
11747;SDS011;5931;48.832;9.072;2023-06-04T01:04:28;8.20;;;4.67;;
11747;SDS011;5931;48.832;9.072;2023-06-04T01:06:57;8.33;;;5.17;;
11747;SDS011;5931;48.832;9.072;2023-06-04T01:09:28;8.50;;;5.43;;
11747;SDS011;5931;48.832;9.072;2023-06-04T01:11:55;7.17;;;5.10;;
11747;SDS011;5931;48.832;9.072;2023-06-04T01:14:23;7.07;;;5.10;;
11747;SDS011;5931;48.832;9.072;2023-06-04T01:16:58;9.67;;;5.50;;
11747;SDS011;5931;48.832;9.072;2023-06-04T01:25:14;7.57;;;5.30;;
11747;SDS011;5931;48.832;9.072;2023-06-04T01:27:58;7.77;;;5.60;;
11747;SDS011;5931;48.832;9.072;2023-06-04T01:30:33;9.50;;;5.70;;
11747;SDS011;5931;48.832;9.072;2023-06-04T01:33:11;9.27;;;5.40;;
11747;SDS011;5931;48.832;9.072;2023-06-04T01:35:44;9.90;;;5.33;;
11747;SDS011;5931;48.832;9.072;2023-06-04T01:38:10;7.87;;;4.90;;
11747;SDS011;5931;48.832;9.072;2023-06-04T01:40:36;9.60;;;5.60;;
11747;SDS011;5931;48.832;9.072;2023-06-04T01:43:02;10.10;;;6.00;;
11747;SDS011;5931;48.832;9.072;2023-06-04T01:45:28;10.00;;;4.50;;
11747;SDS011;5931;48.832;9.072;2023-06-04T01:47:54;8.30;;;6.00;;
11747;SDS011;5931;48.832;9.072;2023-06-04T01:50:20;10.43;;;5.23;;
11747;SDS011;5931;48.832;9.072;2023-06-04T01:52:46;9.73;;;6.00;;
11747;SDS011;5931;48.832;9.072;2023-06-04T01:55:13;10.63;;;4.90;;
11747;SDS011;5931;48.832;9.072;2023-06-04T01:57:41;8.43;;;5.30;;
11747;SDS011;5931;48.832;9.072;2023-06-04T02:00:09;10.33;;;6.70;;
11747;SDS011;5931;48.832;9.072;2023-06-04T02:02:38;8.90;;;5.50;;
11747;SDS011;5931;48.832;9.072;2023-06-04T02:05:06;10.27;;;5.30;;
11747;SDS011;5931;48.832;9.072;2023-06-04T02:07:34;12.70;;;6.60;;
11747;SDS011;5931;48.832;9.072;2023-06-04T02:10:04;10.53;;;6.50;;
11747;SDS011;5931;48.832;9.072;2023-06-04T02:12:39;7.57;;;5.00;;
11747;SDS011;5931;48.832;9.072;2023-06-04T02:15:06;9.10;;;5.50;;
11747;SDS011;5931;48.832;9.072;2023-06-04T02:17:34;9.13;;;6.17;;
11747;SDS011;5931;48.832;9.072;2023-06-04T02:20:05;7.53;;;5.83;;
11747;SDS011;5931;48.832;9.072;2023-06-04T02:22:31;10.80;;;5.53;;
11747;SDS011;5931;48.832;9.072;2023-06-04T02:24:59;8.57;;;5.37;;
11747;SDS011;5931;48.832;9.072;2023-06-04T02:27:25;12.00;;;6.10;;
11747;SDS011;5931;48.832;9.072;2023-06-04T02:29:50;10.70;;;6.67;;
11747;SDS011;5931;48.832;9.072;2023-06-04T02:32:16;9.33;;;6.20;;
11747;SDS011;5931;48.832;9.072;2023-06-04T02:34:42;8.00;;;5.00;;
11747;SDS011;5931;48.832;9.072;2023-06-04T02:37:07;11.70;;;6.57;;
11747;SDS011;5931;48.832;9.072;2023-06-04T02:39:33;15.80;;;6.47;;
11747;SDS011;5931;48.832;9.072;2023-06-04T02:41:59;9.30;;;5.43;;
11747;SDS011;5931;48.832;9.072;2023-06-04T02:44:24;8.40;;;5.80;;
11747;SDS011;5931;48.832;9.072;2023-06-04T02:46:50;9.17;;;5.13;;
11747;SDS011;5931;48.832;9.072;2023-06-04T02:49:16;11.80;;;6.90;;
11747;SDS011;5931;48.832;9.072;2023-06-04T02:51:41;8.90;;;5.87;;
11747;SDS011;5931;48.832;9.072;2023-06-04T02:54:08;8.10;;;5.33;;
11747;SDS011;5931;48.832;9.072;2023-06-04T02:56:34;9.27;;;5.10;;
11747;SDS011;5931;48.832;9.072;2023-06-04T02:59:01;10.00;;;5.30;;
11747;SDS011;5931;48.832;9.072;2023-06-04T03:01:27;7.87;;;5.03;;
11747;SDS011;5931;48.832;9.072;2023-06-04T03:03:54;8.30;;;5.73;;
11747;SDS011;5931;48.832;9.072;2023-06-04T03:06:21;7.20;;;4.47;;
11747;SDS011;5931;48.832;9.072;2023-06-04T03:08:47;7.43;;;5.03;;
11747;SDS011;5931;48.832;9.072;2023-06-04T03:11:15;14.90;;;5.47;;
11747;SDS011;5931;48.832;9.072;2023-06-04T03:13:41;8.03;;;4.70;;
11747;SDS011;5931;48.832;9.072;2023-06-04T03:16:07;8.00;;;4.57;;
11747;SDS011;5931;48.832;9.072;2023-06-04T03:18:36;6.40;;;4.63;;
11747;SDS011;5931;48.832;9.072;2023-06-04T03:21:03;9.57;;;4.90;;
11747;SDS011;5931;48.832;9.072;2023-06-04T03:23:30;7.10;;;5.17;;
11747;SDS011;5931;48.832;9.072;2023-06-04T03:25:56;6.73;;;4.37;;
11747;SDS011;5931;48.832;9.072;2023-06-04T03:28:22;9.03;;;5.50;;
11747;SDS011;5931;48.832;9.072;2023-06-04T03:30:48;11.30;;;5.50;;
11747;SDS011;5931;48.832;9.072;2023-06-04T03:33:14;6.10;;;4.67;;
11747;SDS011;5931;48.832;9.072;2023-06-04T03:35:40;10.67;;;5.30;;
11747;SDS011;5931;48.832;9.072;2023-06-04T03:38:07;5.30;;;3.97;;
11747;SDS011;5931;48.832;9.072;2023-06-04T03:40:33;7.37;;;5.43;;
11747;SDS011;5931;48.832;9.072;2023-06-04T03:42:59;7.47;;;4.70;;
11747;SDS011;5931;48.832;9.072;2023-06-04T03:45:28;5.13;;;3.60;;
11747;SDS011;5931;48.832;9.072;2023-06-04T03:47:54;8.77;;;4.37;;
11747;SDS011;5931;48.832;9.072;2023-06-04T03:50:21;5.90;;;4.10;;
11747;SDS011;5931;48.832;9.072;2023-06-04T03:52:49;6.00;;;4.83;;
11747;SDS011;5931;48.832;9.072;2023-06-04T03:55:15;5.80;;;4.00;;
11747;SDS011;5931;48.832;9.072;2023-06-04T03:57:42;7.57;;;4.47;;
11747;SDS011;5931;48.832;9.072;2023-06-04T04:00:08;8.63;;;4.70;;
11747;SDS011;5931;48.832;9.072;2023-06-04T04:02:43;5.53;;;3.70;;
11747;SDS011;5931;48.832;9.072;2023-06-04T04:05:20;6.00;;;3.80;;
11747;SDS011;5931;48.832;9.072;2023-06-04T04:07:47;4.20;;;3.80;;
11747;SDS011;5931;48.832;9.072;2023-06-04T04:10:14;5.67;;;3.80;;
11747;SDS011;5931;48.832;9.072;2023-06-04T04:12:40;4.77;;;3.37;;
11747;SDS011;5931;48.832;9.072;2023-06-04T04:15:06;4.20;;;3.30;;
11747;SDS011;5931;48.832;9.072;2023-06-04T04:17:32;4.80;;;3.60;;
11747;SDS011;5931;48.832;9.072;2023-06-04T04:19:58;4.40;;;3.67;;
11747;SDS011;5931;48.832;9.072;2023-06-04T04:22:24;5.27;;;3.83;;
11747;SDS011;5931;48.832;9.072;2023-06-04T04:24:49;4.60;;;3.20;;
11747;SDS011;5931;48.832;9.072;2023-06-04T04:27:16;6.10;;;3.57;;
11747;SDS011;5931;48.832;9.072;2023-06-04T04:29:41;5.00;;;3.17;;
11747;SDS011;5931;48.832;9.072;2023-06-04T04:32:08;5.17;;;3.90;;
11747;SDS011;5931;48.832;9.072;2023-06-04T04:34:49;3.70;;;2.80;;
11747;SDS011;5931;48.832;9.072;2023-06-04T04:37:18;6.03;;;3.13;;
11747;SDS011;5931;48.832;9.072;2023-06-04T04:39:47;4.47;;;3.90;;
11747;SDS011;5931;48.832;9.072;2023-06-04T04:42:17;4.20;;;3.23;;
11747;SDS011;5931;48.832;9.072;2023-06-04T04:44:43;5.97;;;3.40;;
11747;SDS011;5931;48.832;9.072;2023-06-04T04:47:16;4.80;;;3.47;;
11747;SDS011;5931;48.832;9.072;2023-06-04T04:49:42;5.20;;;3.57;;
11747;SDS011;5931;48.832;9.072;2023-06-04T04:52:08;4.60;;;3.00;;
11747;SDS011;5931;48.832;9.072;2023-06-04T04:54:35;6.50;;;3.27;;
11747;SDS011;5931;48.832;9.072;2023-06-04T04:57:01;6.00;;;2.77;;
11747;SDS011;5931;48.832;9.072;2023-06-04T04:59:27;4.20;;;2.60;;
11747;SDS011;5931;48.832;9.072;2023-06-04T05:01:55;5.93;;;2.93;;
11747;SDS011;5931;48.832;9.072;2023-06-04T05:04:20;3.90;;;3.10;;
11747;SDS011;5931;48.832;9.072;2023-06-04T05:06:46;5.50;;;3.10;;
11747;SDS011;5931;48.832;9.072;2023-06-04T05:09:12;5.83;;;3.73;;
11747;SDS011;5931;48.832;9.072;2023-06-04T05:11:38;5.77;;;3.20;;
11747;SDS011;5931;48.832;9.072;2023-06-04T05:14:03;6.20;;;3.30;;
11747;SDS011;5931;48.832;9.072;2023-06-04T05:16:29;4.63;;;2.93;;
11747;SDS011;5931;48.832;9.072;2023-06-04T05:18:56;5.43;;;2.60;;
11747;SDS011;5931;48.832;9.072;2023-06-04T05:21:24;5.00;;;2.67;;
11747;SDS011;5931;48.832;9.072;2023-06-04T05:23:58;3.70;;;2.70;;
11747;SDS011;5931;48.832;9.072;2023-06-04T05:26:28;4.80;;;2.80;;
11747;SDS011;5931;48.832;9.072;2023-06-04T05:28:58;2.83;;;2.53;;
11747;SDS011;5931;48.832;9.072;2023-06-04T05:31:24;3.57;;;2.30;;
11747;SDS011;5931;48.832;9.072;2023-06-04T05:33:54;3.53;;;2.67;;
11747;SDS011;5931;48.832;9.072;2023-06-04T05:36:21;3.40;;;2.33;;
11747;SDS011;5931;48.832;9.072;2023-06-04T05:38:53;3.70;;;2.40;;
11747;SDS011;5931;48.832;9.072;2023-06-04T05:41:31;2.70;;;2.33;;
11747;SDS011;5931;48.832;9.072;2023-06-04T05:43:58;5.47;;;2.63;;
11747;SDS011;5931;48.832;9.072;2023-06-04T05:46:25;3.97;;;2.57;;
11747;SDS011;5931;48.832;9.072;2023-06-04T05:48:52;5.30;;;2.60;;
11747;SDS011;5931;48.832;9.072;2023-06-04T05:51:19;3.23;;;2.47;;
11747;SDS011;5931;48.832;9.072;2023-06-04T05:53:46;5.33;;;2.70;;
11747;SDS011;5931;48.832;9.072;2023-06-04T05:56:12;3.13;;;2.10;;
11747;SDS011;5931;48.832;9.072;2023-06-04T05:58:38;3.50;;;3.07;;
11747;SDS011;5931;48.832;9.072;2023-06-04T06:01:05;2.70;;;2.47;;
11747;SDS011;5931;48.832;9.072;2023-06-04T06:03:31;3.30;;;2.60;;
11747;SDS011;5931;48.832;9.072;2023-06-04T06:05:57;2.53;;;2.23;;
11747;SDS011;5931;48.832;9.072;2023-06-04T06:08:23;5.80;;;2.90;;
11747;SDS011;5931;48.832;9.072;2023-06-04T06:10:49;3.83;;;2.30;;
11747;SDS011;5931;48.832;9.072;2023-06-04T06:13:15;2.47;;;2.10;;
11747;SDS011;5931;48.832;9.072;2023-06-04T06:15:41;3.20;;;2.13;;
11747;SDS011;5931;48.832;9.072;2023-06-04T06:18:07;3.40;;;2.00;;
11747;SDS011;5931;48.832;9.072;2023-06-04T06:20:32;3.00;;;2.20;;
11747;SDS011;5931;48.832;9.072;2023-06-04T06:23:05;4.10;;;2.70;;
11747;SDS011;5931;48.832;9.072;2023-06-04T06:25:31;3.30;;;2.37;;
11747;SDS011;5931;48.832;9.072;2023-06-04T06:28:02;2.70;;;2.30;;
11747;SDS011;5931;48.832;9.072;2023-06-04T06:30:28;2.70;;;2.33;;
11747;SDS011;5931;48.832;9.072;2023-06-04T06:32:53;5.97;;;2.70;;
11747;SDS011;5931;48.832;9.072;2023-06-04T06:35:19;3.67;;;2.60;;
11747;SDS011;5931;48.832;9.072;2023-06-04T06:37:45;5.00;;;2.57;;
11747;SDS011;5931;48.832;9.072;2023-06-04T06:40:10;5.80;;;2.87;;
11747;SDS011;5931;48.832;9.072;2023-06-04T06:42:36;5.50;;;2.60;;
11747;SDS011;5931;48.832;9.072;2023-06-04T06:45:02;2.60;;;2.40;;
11747;SDS011;5931;48.832;9.072;2023-06-04T06:47:28;2.80;;;2.27;;
11747;SDS011;5931;48.832;9.072;2023-06-04T06:49:53;3.47;;;2.50;;
11747;SDS011;5931;48.832;9.072;2023-06-04T06:52:19;3.40;;;2.40;;
11747;SDS011;5931;48.832;9.072;2023-06-04T06:54:45;2.70;;;2.27;;
11747;SDS011;5931;48.832;9.072;2023-06-04T06:57:11;2.40;;;1.90;;
11747;SDS011;5931;48.832;9.072;2023-06-04T06:59:37;3.07;;;2.30;;
11747;SDS011;5931;48.832;9.072;2023-06-04T07:02:03;4.07;;;2.50;;
11747;SDS011;5931;48.832;9.072;2023-06-04T07:04:30;3.50;;;2.00;;
11747;SDS011;5931;48.832;9.072;2023-06-04T07:06:55;2.30;;;1.87;;
11747;SDS011;5931;48.832;9.072;2023-06-04T07:09:21;5.37;;;2.03;;
11747;SDS011;5931;48.832;9.072;2023-06-04T07:11:47;3.43;;;2.13;;
11747;SDS011;5931;48.832;9.072;2023-06-04T07:14:12;2.50;;;1.93;;
11747;SDS011;5931;48.832;9.072;2023-06-04T07:16:38;4.20;;;2.00;;
11747;SDS011;5931;48.832;9.072;2023-06-04T07:19:04;4.03;;;2.17;;
11747;SDS011;5931;48.832;9.072;2023-06-04T07:21:30;3.40;;;1.93;;
11747;SDS011;5931;48.832;9.072;2023-06-04T07:23:55;4.07;;;2.30;;
11747;SDS011;5931;48.832;9.072;2023-06-04T07:26:21;2.33;;;2.13;;
11747;SDS011;5931;48.832;9.072;2023-06-04T07:28:47;2.93;;;2.00;;
11747;SDS011;5931;48.832;9.072;2023-06-04T07:31:16;2.77;;;1.93;;
11747;SDS011;5931;48.832;9.072;2023-06-04T07:33:42;2.53;;;1.80;;
11747;SDS011;5931;48.832;9.072;2023-06-04T07:36:14;3.10;;;2.27;;
11747;SDS011;5931;48.832;9.072;2023-06-04T07:38:43;3.57;;;1.90;;
11747;SDS011;5931;48.832;9.072;2023-06-04T07:41:09;2.73;;;2.07;;
11747;SDS011;5931;48.832;9.072;2023-06-04T07:43:35;3.00;;;2.50;;
11747;SDS011;5931;48.832;9.072;2023-06-04T07:46:04;2.70;;;2.23;;
11747;SDS011;5931;48.832;9.072;2023-06-04T07:48:30;2.77;;;2.00;;
11747;SDS011;5931;48.832;9.072;2023-06-04T07:50:59;2.60;;;2.10;;
11747;SDS011;5931;48.832;9.072;2023-06-04T07:53:27;2.33;;;2.00;;
11747;SDS011;5931;48.832;9.072;2023-06-04T07:55:53;2.77;;;2.00;;
11747;SDS011;5931;48.832;9.072;2023-06-04T07:58:20;2.10;;;1.90;;
11747;SDS011;5931;48.832;9.072;2023-06-04T08:00:45;2.73;;;2.00;;
11747;SDS011;5931;48.832;9.072;2023-06-04T08:03:11;2.13;;;1.70;;
11747;SDS011;5931;48.832;9.072;2023-06-04T08:05:37;3.30;;;2.27;;
11747;SDS011;5931;48.832;9.072;2023-06-04T08:08:03;3.27;;;2.17;;
11747;SDS011;5931;48.832;9.072;2023-06-04T08:10:28;3.13;;;2.33;;
11747;SDS011;5931;48.832;9.072;2023-06-04T08:12:55;2.47;;;2.23;;
11747;SDS011;5931;48.832;9.072;2023-06-04T08:15:21;3.47;;;2.30;;
11747;SDS011;5931;48.832;9.072;2023-06-04T08:17:47;2.83;;;2.37;;
11747;SDS011;5931;48.832;9.072;2023-06-04T08:20:12;4.00;;;2.63;;
11747;SDS011;5931;48.832;9.072;2023-06-04T08:22:38;2.50;;;2.30;;
11747;SDS011;5931;48.832;9.072;2023-06-04T08:25:04;4.73;;;2.10;;
11747;SDS011;5931;48.832;9.072;2023-06-04T08:27:30;4.40;;;2.53;;
11747;SDS011;5931;48.832;9.072;2023-06-04T08:29:56;2.80;;;2.40;;
11747;SDS011;5931;48.832;9.072;2023-06-04T08:32:22;2.77;;;2.40;;
11747;SDS011;5931;48.832;9.072;2023-06-04T08:34:48;4.17;;;2.47;;
11747;SDS011;5931;48.832;9.072;2023-06-04T08:37:15;3.20;;;1.97;;
11747;SDS011;5931;48.832;9.072;2023-06-04T08:39:41;2.50;;;2.30;;
11747;SDS011;5931;48.832;9.072;2023-06-04T08:42:07;3.07;;;2.20;;
11747;SDS011;5931;48.832;9.072;2023-06-04T08:44:45;3.03;;;2.10;;
11747;SDS011;5931;48.832;9.072;2023-06-04T08:47:15;2.37;;;1.90;;
11747;SDS011;5931;48.832;9.072;2023-06-04T08:49:42;3.60;;;2.30;;
11747;SDS011;5931;48.832;9.072;2023-06-04T08:52:12;2.47;;;1.80;;
11747;SDS011;5931;48.832;9.072;2023-06-04T08:54:38;2.33;;;2.13;;
11747;SDS011;5931;48.832;9.072;2023-06-04T08:57:04;2.70;;;2.50;;
11747;SDS011;5931;48.832;9.072;2023-06-04T08:59:30;2.70;;;2.50;;
11747;SDS011;5931;48.832;9.072;2023-06-04T09:01:56;2.60;;;2.13;;
11747;SDS011;5931;48.832;9.072;2023-06-04T09:04:23;2.10;;;1.90;;
11747;SDS011;5931;48.832;9.072;2023-06-04T09:06:48;4.27;;;2.40;;
11747;SDS011;5931;48.832;9.072;2023-06-04T09:09:14;4.43;;;2.50;;
11747;SDS011;5931;48.832;9.072;2023-06-04T09:11:49;2.20;;;1.90;;
11747;SDS011;5931;48.832;9.072;2023-06-04T09:14:17;2.60;;;2.10;;
11747;SDS011;5931;48.832;9.072;2023-06-04T09:16:50;2.37;;;1.97;;
11747;SDS011;5931;48.832;9.072;2023-06-04T09:19:17;2.77;;;2.37;;
11747;SDS011;5931;48.832;9.072;2023-06-04T09:24:17;3.57;;;2.17;;
11747;SDS011;5931;48.832;9.072;2023-06-04T09:26:43;3.10;;;2.50;;
11747;SDS011;5931;48.832;9.072;2023-06-04T09:29:10;2.93;;;2.00;;
11747;SDS011;5931;48.832;9.072;2023-06-04T09:31:35;2.57;;;2.00;;
11747;SDS011;5931;48.832;9.072;2023-06-04T09:34:03;3.03;;;2.60;;
11747;SDS011;5931;48.832;9.072;2023-06-04T09:36:30;2.20;;;2.00;;
11747;SDS011;5931;48.832;9.072;2023-06-04T09:38:57;4.10;;;2.47;;
11747;SDS011;5931;48.832;9.072;2023-06-04T09:41:22;2.90;;;2.30;;
11747;SDS011;5931;48.832;9.072;2023-06-04T09:43:49;2.80;;;2.20;;
11747;SDS011;5931;48.832;9.072;2023-06-04T09:46:15;3.23;;;2.07;;
11747;SDS011;5931;48.832;9.072;2023-06-04T09:48:43;2.93;;;2.00;;
11747;SDS011;5931;48.832;9.072;2023-06-04T09:51:10;5.30;;;2.80;;
11747;SDS011;5931;48.832;9.072;2023-06-04T09:53:37;4.37;;;2.60;;
11747;SDS011;5931;48.832;9.072;2023-06-04T09:56:04;3.40;;;2.30;;
11747;SDS011;5931;48.832;9.072;2023-06-04T09:58:31;4.17;;;2.27;;
11747;SDS011;5931;48.832;9.072;2023-06-04T10:00:59;3.20;;;2.50;;
11747;SDS011;5931;48.832;9.072;2023-06-04T10:03:26;3.73;;;2.53;;
11747;SDS011;5931;48.832;9.072;2023-06-04T10:05:57;2.77;;;2.10;;
11747;SDS011;5931;48.832;9.072;2023-06-04T10:08:25;2.80;;;1.93;;
11747;SDS011;5931;48.832;9.072;2023-06-04T10:10:56;3.13;;;2.40;;
11747;SDS011;5931;48.832;9.072;2023-06-04T10:13:26;3.23;;;2.27;;
11747;SDS011;5931;48.832;9.072;2023-06-04T10:15:54;4.73;;;2.47;;
11747;SDS011;5931;48.832;9.072;2023-06-04T10:18:23;4.73;;;2.27;;
11747;SDS011;5931;48.832;9.072;2023-06-04T10:20:49;3.50;;;2.73;;
11747;SDS011;5931;48.832;9.072;2023-06-04T10:23:15;2.80;;;2.40;;
11747;SDS011;5931;48.832;9.072;2023-06-04T10:25:42;3.57;;;2.70;;
11747;SDS011;5931;48.832;9.072;2023-06-04T10:28:09;3.60;;;2.97;;
11747;SDS011;5931;48.832;9.072;2023-06-04T10:30:36;4.83;;;2.87;;
11747;SDS011;5931;48.832;9.072;2023-06-04T10:33:01;2.93;;;2.17;;
11747;SDS011;5931;48.832;9.072;2023-06-04T10:35:31;2.90;;;1.90;;
11747;SDS011;5931;48.832;9.072;2023-06-04T10:38:12;3.60;;;2.07;;
11747;SDS011;5931;48.832;9.072;2023-06-04T10:40:39;3.77;;;2.63;;
11747;SDS011;5931;48.832;9.072;2023-06-04T10:43:05;2.67;;;2.47;;
11747;SDS011;5931;48.832;9.072;2023-06-04T10:45:35;3.80;;;2.10;;
11747;SDS011;5931;48.832;9.072;2023-06-04T10:48:05;3.17;;;2.33;;
11747;SDS011;5931;48.832;9.072;2023-06-04T10:50:33;5.73;;;2.57;;
11747;SDS011;5931;48.832;9.072;2023-06-04T10:52:59;4.20;;;2.83;;
11747;SDS011;5931;48.832;9.072;2023-06-04T10:55:28;3.30;;;2.30;;
11747;SDS011;5931;48.832;9.072;2023-06-04T10:57:56;2.87;;;2.57;;
11747;SDS011;5931;48.832;9.072;2023-06-04T11:00:38;5.30;;;2.57;;
11747;SDS011;5931;48.832;9.072;2023-06-04T11:03:06;2.50;;;2.23;;
11747;SDS011;5931;48.832;9.072;2023-06-04T11:05:45;2.70;;;2.40;;
11747;SDS011;5931;48.832;9.072;2023-06-04T11:08:12;5.57;;;2.67;;
11747;SDS011;5931;48.832;9.072;2023-06-04T11:10:43;2.70;;;2.50;;
11747;SDS011;5931;48.832;9.072;2023-06-04T11:13:09;3.17;;;2.43;;
11747;SDS011;5931;48.832;9.072;2023-06-04T11:18:05;4.40;;;2.23;;
11747;SDS011;5931;48.832;9.072;2023-06-04T11:20:30;3.03;;;2.20;;
11747;SDS011;5931;48.832;9.072;2023-06-04T11:22:57;2.80;;;2.20;;
11747;SDS011;5931;48.832;9.072;2023-06-04T11:25:25;3.80;;;2.67;;
11747;SDS011;5931;48.832;9.072;2023-06-04T11:27:52;3.73;;;2.50;;
11747;SDS011;5931;48.832;9.072;2023-06-04T11:30:21;4.57;;;2.83;;
11747;SDS011;5931;48.832;9.072;2023-06-04T11:32:47;4.53;;;2.37;;
11747;SDS011;5931;48.832;9.072;2023-06-04T11:35:13;4.23;;;2.00;;
11747;SDS011;5931;48.832;9.072;2023-06-04T11:37:39;3.10;;;2.50;;
11747;SDS011;5931;48.832;9.072;2023-06-04T11:40:17;3.27;;;2.40;;
11747;SDS011;5931;48.832;9.072;2023-06-04T11:42:45;4.20;;;2.80;;
11747;SDS011;5931;48.832;9.072;2023-06-04T11:45:12;3.40;;;2.40;;
11747;SDS011;5931;48.832;9.072;2023-06-04T11:47:41;3.80;;;2.90;;
11747;SDS011;5931;48.832;9.072;2023-06-04T11:50:09;3.50;;;2.70;;
11747;SDS011;5931;48.832;9.072;2023-06-04T11:52:36;3.97;;;3.00;;
11747;SDS011;5931;48.832;9.072;2023-06-04T11:55:02;3.90;;;2.63;;
11747;SDS011;5931;48.832;9.072;2023-06-04T11:57:29;4.03;;;2.60;;
11747;SDS011;5931;48.832;9.072;2023-06-04T11:59:59;2.63;;;2.30;;
11747;SDS011;5931;48.832;9.072;2023-06-04T12:02:25;4.13;;;2.73;;
11747;SDS011;5931;48.832;9.072;2023-06-04T12:04:51;3.10;;;2.43;;
11747;SDS011;5931;48.832;9.072;2023-06-04T12:07:20;4.33;;;2.50;;
11747;SDS011;5931;48.832;9.072;2023-06-04T12:09:49;5.00;;;2.70;;
11747;SDS011;5931;48.832;9.072;2023-06-04T12:12:20;3.10;;;2.30;;
11747;SDS011;5931;48.832;9.072;2023-06-04T12:14:55;4.60;;;2.53;;
11747;SDS011;5931;48.832;9.072;2023-06-04T12:17:22;3.13;;;2.83;;
11747;SDS011;5931;48.832;9.072;2023-06-04T12:19:48;3.10;;;2.40;;
11747;SDS011;5931;48.832;9.072;2023-06-04T12:22:16;2.87;;;2.57;;
11747;SDS011;5931;48.832;9.072;2023-06-04T12:24:54;4.50;;;3.00;;
11747;SDS011;5931;48.832;9.072;2023-06-04T12:27:22;3.27;;;2.40;;
11747;SDS011;5931;48.832;9.072;2023-06-04T12:30:00;5.83;;;2.27;;
11747;SDS011;5931;48.832;9.072;2023-06-04T12:32:30;2.90;;;2.20;;
11747;SDS011;5931;48.832;9.072;2023-06-04T12:34:59;2.80;;;2.10;;
11747;SDS011;5931;48.832;9.072;2023-06-04T12:37:25;5.80;;;2.57;;
11747;SDS011;5931;48.832;9.072;2023-06-04T12:39:50;3.53;;;2.63;;
11747;SDS011;5931;48.832;9.072;2023-06-04T12:42:16;4.70;;;2.90;;
11747;SDS011;5931;48.832;9.072;2023-06-04T12:44:44;2.43;;;2.23;;
11747;SDS011;5931;48.832;9.072;2023-06-04T12:47:10;2.90;;;2.37;;
11747;SDS011;5931;48.832;9.072;2023-06-04T12:49:36;4.07;;;2.47;;
11747;SDS011;5931;48.832;9.072;2023-06-04T12:52:02;4.33;;;2.27;;
11747;SDS011;5931;48.832;9.072;2023-06-04T12:54:29;3.17;;;2.47;;
11747;SDS011;5931;48.832;9.072;2023-06-04T12:56:55;2.93;;;2.10;;
11747;SDS011;5931;48.832;9.072;2023-06-04T12:59:21;2.53;;;2.33;;
11747;SDS011;5931;48.832;9.072;2023-06-04T13:01:48;2.63;;;2.20;;
11747;SDS011;5931;48.832;9.072;2023-06-04T13:04:14;3.60;;;2.20;;
11747;SDS011;5931;48.832;9.072;2023-06-04T13:06:40;2.80;;;1.73;;
11747;SDS011;5931;48.832;9.072;2023-06-04T13:09:06;3.23;;;2.40;;
11747;SDS011;5931;48.832;9.072;2023-06-04T13:11:43;3.20;;;2.30;;
11747;SDS011;5931;48.832;9.072;2023-06-04T13:14:09;2.90;;;2.30;;
11747;SDS011;5931;48.832;9.072;2023-06-04T13:16:35;2.80;;;2.20;;
11747;SDS011;5931;48.832;9.072;2023-06-04T13:19:01;3.20;;;2.33;;
11747;SDS011;5931;48.832;9.072;2023-06-04T13:21:27;3.23;;;2.10;;
11747;SDS011;5931;48.832;9.072;2023-06-04T13:23:53;3.57;;;2.37;;
11747;SDS011;5931;48.832;9.072;2023-06-04T13:26:19;3.00;;;2.03;;
11747;SDS011;5931;48.832;9.072;2023-06-04T13:28:51;3.13;;;2.53;;
11747;SDS011;5931;48.832;9.072;2023-06-04T13:31:17;4.13;;;3.43;;
11747;SDS011;5931;48.832;9.072;2023-06-04T13:33:42;3.93;;;2.20;;
11747;SDS011;5931;48.832;9.072;2023-06-04T13:36:08;4.20;;;2.77;;
11747;SDS011;5931;48.832;9.072;2023-06-04T13:38:34;3.63;;;2.40;;
11747;SDS011;5931;48.832;9.072;2023-06-04T13:41:00;3.30;;;2.07;;
11747;SDS011;5931;48.832;9.072;2023-06-04T13:43:26;5.07;;;2.20;;
11747;SDS011;5931;48.832;9.072;2023-06-04T13:45:51;6.57;;;2.70;;
11747;SDS011;5931;48.832;9.072;2023-06-04T13:48:17;3.17;;;2.50;;
11747;SDS011;5931;48.832;9.072;2023-06-04T13:50:43;2.40;;;2.20;;
11747;SDS011;5931;48.832;9.072;2023-06-04T13:53:09;3.37;;;2.50;;
11747;SDS011;5931;48.832;9.072;2023-06-04T13:55:36;2.53;;;2.13;;
11747;SDS011;5931;48.832;9.072;2023-06-04T13:58:01;2.13;;;1.70;;
11747;SDS011;5931;48.832;9.072;2023-06-04T14:00:27;2.80;;;2.30;;
11747;SDS011;5931;48.832;9.072;2023-06-04T14:02:55;3.03;;;2.57;;
11747;SDS011;5931;48.832;9.072;2023-06-04T14:05:21;3.80;;;2.60;;
11747;SDS011;5931;48.832;9.072;2023-06-04T14:07:47;4.37;;;2.93;;
11747;SDS011;5931;48.832;9.072;2023-06-04T14:10:12;3.00;;;2.60;;
11747;SDS011;5931;48.832;9.072;2023-06-04T14:12:38;4.77;;;2.90;;
11747;SDS011;5931;48.832;9.072;2023-06-04T14:15:06;3.30;;;2.30;;
11747;SDS011;5931;48.832;9.072;2023-06-04T14:17:33;3.70;;;2.40;;
11747;SDS011;5931;48.832;9.072;2023-06-04T14:20:00;4.13;;;2.70;;
11747;SDS011;5931;48.832;9.072;2023-06-04T14:22:32;2.97;;;2.50;;
11747;SDS011;5931;48.832;9.072;2023-06-04T14:24:58;3.60;;;2.20;;
11747;SDS011;5931;48.832;9.072;2023-06-04T14:27:24;4.00;;;2.00;;
11747;SDS011;5931;48.832;9.072;2023-06-04T14:29:50;3.00;;;2.40;;
11747;SDS011;5931;48.832;9.072;2023-06-04T14:32:16;2.73;;;2.53;;
11747;SDS011;5931;48.832;9.072;2023-06-04T14:34:41;4.17;;;2.53;;
11747;SDS011;5931;48.832;9.072;2023-06-04T14:37:07;6.53;;;2.47;;
11747;SDS011;5931;48.832;9.072;2023-06-04T14:39:32;4.60;;;2.83;;
11747;SDS011;5931;48.832;9.072;2023-06-04T14:41:58;2.90;;;2.10;;
11747;SDS011;5931;48.832;9.072;2023-06-04T14:44:24;2.47;;;2.13;;
11747;SDS011;5931;48.832;9.072;2023-06-04T14:46:50;7.23;;;2.40;;
11747;SDS011;5931;48.832;9.072;2023-06-04T14:49:16;5.80;;;2.47;;
11747;SDS011;5931;48.832;9.072;2023-06-04T14:51:42;4.73;;;2.63;;
11747;SDS011;5931;48.832;9.072;2023-06-04T14:54:07;4.93;;;2.47;;
11747;SDS011;5931;48.832;9.072;2023-06-04T14:56:33;3.23;;;2.30;;
11747;SDS011;5931;48.832;9.072;2023-06-04T14:58:58;4.30;;;2.20;;
11747;SDS011;5931;48.832;9.072;2023-06-04T15:01:25;2.33;;;1.90;;
11747;SDS011;5931;48.832;9.072;2023-06-04T15:03:51;3.80;;;2.10;;
11747;SDS011;5931;48.832;9.072;2023-06-04T15:06:17;3.57;;;2.33;;
11747;SDS011;5931;48.832;9.072;2023-06-04T15:08:43;3.27;;;2.30;;
11747;SDS011;5931;48.832;9.072;2023-06-04T15:11:10;2.80;;;2.03;;